sensor_id;sensor_type;location;lat;lon;timestamp;pressure;altitude;pressure_sealevel;temperature;humidity
8298;BME280;4187;42.778;23.242;2023-01-16T00:02:06;95245.38;;;0.11;100.00
8298;BME280;4187;42.778;23.242;2023-01-16T00:04:32;95218.25;;;0.17;100.00
8298;BME280;4187;42.778;23.242;2023-01-16T00:07:02;95232.25;;;0.30;100.00
8298;BME280;4187;42.778;23.242;2023-01-16T00:09:28;95239.69;;;0.36;100.00
8298;BME280;4187;42.778;23.242;2023-01-16T00:11:55;95200.09;;;0.17;100.00
8298;BME280;4187;42.778;23.242;2023-01-16T00:14:22;95216.50;;;0.33;100.00
8298;BME280;4187;42.778;23.242;2023-01-16T00:16:49;95179.56;;;0.43;100.00
8298;BME280;4187;42.778;23.242;2023-01-16T00:19:16;95220.09;;;0.91;100.00
8298;BME280;4187;42.778;23.242;2023-01-16T00:21:42;95218.09;;;0.81;100.00
8298;BME280;4187;42.778;23.242;2023-01-16T00:24:14;95217.66;;;0.88;100.00
8298;BME280;4187;42.778;23.242;2023-01-16T00:26:41;95210.31;;;0.95;100.00
8298;BME280;4187;42.778;23.242;2023-01-16T00:29:08;95214.72;;;1.08;100.00
8298;BME280;4187;42.778;23.242;2023-01-16T00:31:34;95210.81;;;1.01;100.00
8298;BME280;4187;42.778;23.242;2023-01-16T00:34:01;95200.88;;;0.94;100.00
8298;BME280;4187;42.778;23.242;2023-01-16T00:36:28;95182.19;;;0.87;100.00
8298;BME280;4187;42.778;23.242;2023-01-16T00:38:55;95206.75;;;0.97;100.00
8298;BME280;4187;42.778;23.242;2023-01-16T00:41:23;95201.13;;;0.89;100.00
8298;BME280;4187;42.778;23.242;2023-01-16T00:43:50;95192.34;;;0.92;100.00
8298;BME280;4187;42.778;23.242;2023-01-16T00:46:17;95197.09;;;0.99;100.00
8298;BME280;4187;42.778;23.242;2023-01-16T00:48:44;95201.16;;;1.03;100.00
8298;BME280;4187;42.778;23.242;2023-01-16T00:51:11;95202.84;;;1.04;100.00
8298;BME280;4187;42.778;23.242;2023-01-16T00:53:38;95189.47;;;0.96;100.00
8298;BME280;4187;42.778;23.242;2023-01-16T00:56:06;95184.94;;;1.00;100.00
8298;BME280;4187;42.778;23.242;2023-01-16T00:58:34;95181.94;;;0.92;100.00
8298;BME280;4187;42.778;23.242;2023-01-16T01:01:01;95188.00;;;1.06;100.00
8298;BME280;4187;42.778;23.242;2023-01-16T01:03:28;95180.19;;;1.06;100.00
8298;BME280;4187;42.778;23.242;2023-01-16T01:05:55;95187.31;;;1.03;100.00
8298;BME280;4187;42.778;23.242;2023-01-16T01:08:21;95192.72;;;1.00;100.00
8298;BME280;4187;42.778;23.242;2023-01-16T01:10:48;95187.59;;;0.98;100.00
8298;BME280;4187;42.778;23.242;2023-01-16T01:13:15;95178.22;;;0.96;100.00
8298;BME280;4187;42.778;23.242;2023-01-16T01:15:44;95182.78;;;1.06;100.00
8298;BME280;4187;42.778;23.242;2023-01-16T01:18:10;95175.19;;;1.03;100.00
8298;BME280;4187;42.778;23.242;2023-01-16T01:20:37;95163.78;;;0.92;100.00
8298;BME280;4187;42.778;23.242;2023-01-16T01:23:04;95157.56;;;0.94;100.00
8298;BME280;4187;42.778;23.242;2023-01-16T01:25:31;95162.16;;;0.89;100.00
8298;BME280;4187;42.778;23.242;2023-01-16T01:27:57;95174.13;;;0.78;100.00
8298;BME280;4187;42.778;23.242;2023-01-16T01:30:24;95169.31;;;0.56;100.00
8298;BME280;4187;42.778;23.242;2023-01-16T01:32:52;95187.06;;;0.64;100.00
8298;BME280;4187;42.778;23.242;2023-01-16T01:35:19;95113.84;;;0.13;100.00
8298;BME280;4187;42.778;23.242;2023-01-16T01:37:46;95170.13;;;0.42;100.00
8298;BME280;4187;42.778;23.242;2023-01-16T01:40:13;95164.19;;;0.25;100.00
8298;BME280;4187;42.778;23.242;2023-01-16T01:42:40;95169.81;;;0.17;100.00
8298;BME280;4187;42.778;23.242;2023-01-16T01:45:16;95152.25;;;0.07;100.00
8298;BME280;4187;42.778;23.242;2023-01-16T01:47:47;95149.47;;;0.25;100.00
8298;BME280;4187;42.778;23.242;2023-01-16T01:50:24;95160.78;;;0.24;100.00
8298;BME280;4187;42.778;23.242;2023-01-16T01:52:53;95153.50;;;0.15;100.00
8298;BME280;4187;42.778;23.242;2023-01-16T01:55:21;95147.03;;;0.22;100.00
8298;BME280;4187;42.778;23.242;2023-01-16T01:57:51;95148.06;;;0.04;100.00
8298;BME280;4187;42.778;23.242;2023-01-16T02:00:22;95127.16;;;0.07;100.00
8298;BME280;4187;42.778;23.242;2023-01-16T02:02:53;95143.59;;;0.22;100.00
8298;BME280;4187;42.778;23.242;2023-01-16T02:05:26;95135.00;;;0.21;100.00
8298;BME280;4187;42.778;23.242;2023-01-16T02:07:54;95132.13;;;0.26;100.00
8298;BME280;4187;42.778;23.242;2023-01-16T02:10:29;95130.44;;;0.25;100.00
8298;BME280;4187;42.778;23.242;2023-01-16T02:12:58;95137.72;;;0.34;100.00
8298;BME280;4187;42.778;23.242;2023-01-16T02:15:27;95138.22;;;0.25;100.00
8298;BME280;4187;42.778;23.242;2023-01-16T02:17:54;95128.03;;;0.22;100.00
8298;BME280;4187;42.778;23.242;2023-01-16T02:20:52;95125.81;;;0.30;100.00
8298;BME280;4187;42.778;23.242;2023-01-16T02:23:59;95128.34;;;0.31;100.00
8298;BME280;4187;42.778;23.242;2023-01-16T02:26:45;95103.53;;;0.12;100.00
8298;BME280;4187;42.778;23.242;2023-01-16T02:29:32;95135.88;;;0.36;100.00
8298;BME280;4187;42.778;23.242;2023-01-16T02:32:22;95124.69;;;0.20;100.00
8298;BME280;4187;42.778;23.242;2023-01-16T02:35:08;95121.97;;;0.07;100.00
8298;BME280;4187;42.778;23.242;2023-01-16T02:37:44;95128.06;;;0.06;100.00
8298;BME280;4187;42.778;23.242;2023-01-16T02:40:21;95128.25;;;-0.13;100.00
8298;BME280;4187;42.778;23.242;2023-01-16T02:42:59;95111.19;;;-0.48;100.00
8298;BME280;4187;42.778;23.242;2023-01-16T02:45:39;95113.94;;;-0.51;100.00
8298;BME280;4187;42.778;23.242;2023-01-16T02:48:12;95106.91;;;-0.65;100.00
8298;BME280;4187;42.778;23.242;2023-01-16T02:50:48;95108.75;;;-0.67;100.00
8298;BME280;4187;42.778;23.242;2023-01-16T02:53:21;95098.56;;;-0.70;100.00
8298;BME280;4187;42.778;23.242;2023-01-16T02:55:53;95106.84;;;-0.63;100.00
8298;BME280;4187;42.778;23.242;2023-01-16T02:58:22;95077.25;;;-0.59;100.00
8298;BME280;4187;42.778;23.242;2023-01-16T03:00:52;95089.19;;;-0.56;100.00
8298;BME280;4187;42.778;23.242;2023-01-16T03:03:36;95099.41;;;-0.38;100.00
8298;BME280;4187;42.778;23.242;2023-01-16T03:06:11;95099.41;;;-0.38;100.00
8298;BME280;4187;42.778;23.242;2023-01-16T03:08:45;95085.78;;;-0.26;100.00
8298;BME280;4187;42.778;23.242;2023-01-16T03:11:19;95071.91;;;-0.25;100.00
8298;BME280;4187;42.778;23.242;2023-01-16T03:13:58;95069.44;;;-0.12;100.00
8298;BME280;4187;42.778;23.242;2023-01-16T03:16:32;95075.31;;;-0.09;100.00
8298;BME280;4187;42.778;23.242;2023-01-16T03:19:15;95070.41;;;0.01;100.00
8298;BME280;4187;42.778;23.242;2023-01-16T03:21:56;95051.78;;;-0.06;100.00
8298;BME280;4187;42.778;23.242;2023-01-16T03:24:31;95078.00;;;0.20;100.00
8298;BME280;4187;42.778;23.242;2023-01-16T03:27:08;95076.09;;;0.08;100.00
8298;BME280;4187;42.778;23.242;2023-01-16T03:29:41;95073.84;;;0.02;100.00
8298;BME280;4187;42.778;23.242;2023-01-16T03:32:13;95064.75;;;-0.06;100.00
8298;BME280;4187;42.778;23.242;2023-01-16T03:34:53;95055.88;;;-0.02;100.00
8298;BME280;4187;42.778;23.242;2023-01-16T03:37:24;95048.34;;;-0.06;100.00
8298;BME280;4187;42.778;23.242;2023-01-16T03:39:56;95044.91;;;-0.07;100.00
8298;BME280;4187;42.778;23.242;2023-01-16T03:42:29;95039.63;;;-0.05;100.00
8298;BME280;4187;42.778;23.242;2023-01-16T03:45:02;95031.69;;;-0.02;100.00
8298;BME280;4187;42.778;23.242;2023-01-16T03:47:34;95024.00;;;-0.04;100.00
8298;BME280;4187;42.778;23.242;2023-01-16T03:50:08;95029.75;;;0.02;100.00
8298;BME280;4187;42.778;23.242;2023-01-16T03:52:39;95029.75;;;0.02;100.00
8298;BME280;4187;42.778;23.242;2023-01-16T03:55:12;95027.06;;;0.03;100.00
8298;BME280;4187;42.778;23.242;2023-01-16T03:57:44;95028.00;;;0.02;100.00
8298;BME280;4187;42.778;23.242;2023-01-16T04:00:13;95032.78;;;-0.06;100.00
8298;BME280;4187;42.778;23.242;2023-01-16T04:02:43;95035.22;;;-0.19;100.00
8298;BME280;4187;42.778;23.242;2023-01-16T04:05:17;95044.88;;;-0.21;100.00
8298;BME280;4187;42.778;23.242;2023-01-16T04:07:48;95035.38;;;-0.36;100.00
8298;BME280;4187;42.778;23.242;2023-01-16T04:10:21;95026.16;;;-0.41;100.00
8298;BME280;4187;42.778;23.242;2023-01-16T04:12:52;95040.56;;;-0.36;100.00
8298;BME280;4187;42.778;23.242;2023-01-16T04:15:21;95035.28;;;-0.50;100.00
8298;BME280;4187;42.778;23.242;2023-01-16T04:17:51;95029.19;;;-0.49;100.00
8298;BME280;4187;42.778;23.242;2023-01-16T04:20:19;95015.63;;;-0.54;100.00
8298;BME280;4187;42.778;23.242;2023-01-16T04:22:47;95019.63;;;-0.48;100.00
8298;BME280;4187;42.778;23.242;2023-01-16T04:25:16;95028.53;;;-0.68;100.00
8298;BME280;4187;42.778;23.242;2023-01-16T04:27:43;95024.84;;;-0.64;100.00
8298;BME280;4187;42.778;23.242;2023-01-16T04:30:11;95026.00;;;-0.70;100.00
8298;BME280;4187;42.778;23.242;2023-01-16T04:32:38;94985.41;;;-0.85;100.00
8298;BME280;4187;42.778;23.242;2023-01-16T04:35:05;95011.81;;;-0.63;100.00
8298;BME280;4187;42.778;23.242;2023-01-16T04:37:34;94997.34;;;-0.67;100.00
8298;BME280;4187;42.778;23.242;2023-01-16T04:40:01;94995.44;;;-0.63;100.00
8298;BME280;4187;42.778;23.242;2023-01-16T04:42:28;95002.09;;;-0.59;100.00
8298;BME280;4187;42.778;23.242;2023-01-16T04:44:55;95001.34;;;-0.61;100.00
8298;BME280;4187;42.778;23.242;2023-01-16T04:47:21;94999.50;;;-0.59;100.00
8298;BME280;4187;42.778;23.242;2023-01-16T04:49:48;95000.75;;;-0.50;100.00
8298;BME280;4187;42.778;23.242;2023-01-16T04:52:15;94999.00;;;-0.50;100.00
8298;BME280;4187;42.778;23.242;2023-01-16T04:54:43;94998.25;;;-0.52;100.00
8298;BME280;4187;42.778;23.242;2023-01-16T04:57:10;95006.88;;;-0.51;100.00
8298;BME280;4187;42.778;23.242;2023-01-16T04:59:37;95001.72;;;-0.37;100.00
8298;BME280;4187;42.778;23.242;2023-01-16T05:02:04;94997.56;;;-0.40;100.00
8298;BME280;4187;42.778;23.242;2023-01-16T05:04:30;94993.88;;;-0.36;100.00
8298;BME280;4187;42.778;23.242;2023-01-16T05:06:57;94999.97;;;-0.37;100.00
8298;BME280;4187;42.778;23.242;2023-01-16T05:09:24;94995.75;;;-0.53;100.00
8298;BME280;4187;42.778;23.242;2023-01-16T05:11:52;94997.09;;;-0.62;100.00
8298;BME280;4187;42.778;23.242;2023-01-16T05:14:19;94993.00;;;-0.66;100.00
8298;BME280;4187;42.778;23.242;2023-01-16T05:16:46;94990.25;;;-0.63;100.00
8298;BME280;4187;42.778;23.242;2023-01-16T05:19:12;94985.88;;;-0.47;100.00
8298;BME280;4187;42.778;23.242;2023-01-16T05:21:39;94979.69;;;-0.44;100.00
8298;BME280;4187;42.778;23.242;2023-01-16T05:24:06;94976.53;;;-0.49;100.00
8298;BME280;4187;42.778;23.242;2023-01-16T05:26:33;94972.81;;;-0.45;100.00
8298;BME280;4187;42.778;23.242;2023-01-16T05:29:01;94961.59;;;-0.46;100.00
8298;BME280;4187;42.778;23.242;2023-01-16T05:31:28;94959.78;;;-0.44;100.00
8298;BME280;4187;42.778;23.242;2023-01-16T05:33:55;94966.47;;;-0.40;100.00
8298;BME280;4187;42.778;23.242;2023-01-16T05:36:22;94963.63;;;-0.51;100.00
8298;BME280;4187;42.778;23.242;2023-01-16T05:38:48;94965.16;;;-0.47;100.00
8298;BME280;4187;42.778;23.242;2023-01-16T05:41:16;94966.38;;;-0.38;100.00
8298;BME280;4187;42.778;23.242;2023-01-16T05:43:43;94973.25;;;-0.53;100.00
8298;BME280;4187;42.778;23.242;2023-01-16T05:46:11;94950.66;;;-0.65;100.00
8298;BME280;4187;42.778;23.242;2023-01-16T05:48:38;94964.41;;;-0.65;100.00
8298;BME280;4187;42.778;23.242;2023-01-16T05:51:05;94967.53;;;-0.74;100.00
8298;BME280;4187;42.778;23.242;2023-01-16T05:53:32;94959.19;;;-0.79;100.00
8298;BME280;4187;42.778;23.242;2023-01-16T05:56:06;94961.56;;;-0.76;100.00
8298;BME280;4187;42.778;23.242;2023-01-16T05:58:33;94949.88;;;-0.67;100.00
8298;BME280;4187;42.778;23.242;2023-01-16T06:01:00;94943.44;;;-0.60;100.00
8298;BME280;4187;42.778;23.242;2023-01-16T06:03:28;94949.31;;;-0.42;100.00
8298;BME280;4187;42.778;23.242;2023-01-16T06:05:55;94939.22;;;-0.47;100.00
8298;BME280;4187;42.778;23.242;2023-01-16T06:08:24;94937.53;;;-0.48;100.00
8298;BME280;4187;42.778;23.242;2023-01-16T06:10:51;94949.41;;;-0.44;100.00
8298;BME280;4187;42.778;23.242;2023-01-16T06:13:17;94950.06;;;-0.40;100.00
8298;BME280;4187;42.778;23.242;2023-01-16T06:15:44;94939.06;;;-0.44;100.00
8298;BME280;4187;42.778;23.242;2023-01-16T06:18:11;94942.56;;;-0.45;100.00
8298;BME280;4187;42.778;23.242;2023-01-16T06:20:41;94941.09;;;-0.35;100.00
8298;BME280;4187;42.778;23.242;2023-01-16T06:23:08;94951.44;;;-0.19;100.00
8298;BME280;4187;42.778;23.242;2023-01-16T06:25:35;94963.34;;;-0.01;100.00
8298;BME280;4187;42.778;23.242;2023-01-16T06:28:02;94966.03;;;0.12;100.00
8298;BME280;4187;42.778;23.242;2023-01-16T06:30:28;94962.97;;;0.19;100.00
8298;BME280;4187;42.778;23.242;2023-01-16T06:32:55;94956.03;;;0.20;100.00
8298;BME280;4187;42.778;23.242;2023-01-16T06:35:22;94960.97;;;0.24;100.00
8298;BME280;4187;42.778;23.242;2023-01-16T06:37:50;94968.38;;;0.30;100.00
8298;BME280;4187;42.778;23.242;2023-01-16T06:40:17;94956.97;;;0.47;100.00
8298;BME280;4187;42.778;23.242;2023-01-16T06:42:45;94959.03;;;0.56;100.00
8298;BME280;4187;42.778;23.242;2023-01-16T06:45:11;94949.75;;;0.66;100.00
8298;BME280;4187;42.778;23.242;2023-01-16T06:47:38;94931.00;;;0.75;100.00
8298;BME280;4187;42.778;23.242;2023-01-16T06:50:05;94930.97;;;0.89;100.00
8298;BME280;4187;42.778;23.242;2023-01-16T06:52:32;94943.75;;;1.06;100.00
8298;BME280;4187;42.778;23.242;2023-01-16T06:55:01;94939.69;;;1.02;100.00
8298;BME280;4187;42.778;23.242;2023-01-16T06:57:28;94954.41;;;1.16;100.00
8298;BME280;4187;42.778;23.242;2023-01-16T06:59:55;94949.44;;;1.26;100.00
8298;BME280;4187;42.778;23.242;2023-01-16T07:02:22;94935.56;;;1.39;100.00
8298;BME280;4187;42.778;23.242;2023-01-16T07:04:49;94936.06;;;1.58;100.00
8298;BME280;4187;42.778;23.242;2023-01-16T07:07:16;94929.22;;;1.70;100.00
8298;BME280;4187;42.778;23.242;2023-01-16T07:09:42;94935.63;;;1.91;100.00
8298;BME280;4187;42.778;23.242;2023-01-16T07:12:11;94935.63;;;1.91;100.00
8298;BME280;4187;42.778;23.242;2023-01-16T07:14:37;94928.13;;;1.99;100.00
8298;BME280;4187;42.778;23.242;2023-01-16T07:17:22;94923.91;;;2.11;100.00
8298;BME280;4187;42.778;23.242;2023-01-16T07:20:08;94927.22;;;2.25;100.00
8298;BME280;4187;42.778;23.242;2023-01-16T07:22:52;94914.41;;;2.35;100.00
8298;BME280;4187;42.778;23.242;2023-01-16T07:25:21;94924.81;;;2.48;100.00
8298;BME280;4187;42.778;23.242;2023-01-16T07:27:52;94924.19;;;2.57;100.00
8298;BME280;4187;42.778;23.242;2023-01-16T07:30:20;94925.31;;;2.65;100.00
8298;BME280;4187;42.778;23.242;2023-01-16T07:32:48;94931.16;;;2.69;100.00
8298;BME280;4187;42.778;23.242;2023-01-16T07:35:15;94920.75;;;2.56;100.00
8298;BME280;4187;42.778;23.242;2023-01-16T07:37:42;94894.00;;;2.29;100.00
8298;BME280;4187;42.778;23.242;2023-01-16T07:40:10;94922.22;;;2.48;100.00
8298;BME280;4187;42.778;23.242;2023-01-16T07:42:37;94927.72;;;2.30;100.00
8298;BME280;4187;42.778;23.242;2023-01-16T07:45:06;94895.97;;;2.13;100.00
8298;BME280;4187;42.778;23.242;2023-01-16T07:47:33;94914.41;;;2.35;100.00
8298;BME280;4187;42.778;23.242;2023-01-16T07:50:00;94898.69;;;2.36;100.00
8298;BME280;4187;42.778;23.242;2023-01-16T07:52:27;94902.94;;;2.50;100.00
8298;BME280;4187;42.778;23.242;2023-01-16T07:54:54;94896.97;;;2.73;100.00
8298;BME280;4187;42.778;23.242;2023-01-16T07:57:21;94891.53;;;2.89;100.00
8298;BME280;4187;42.778;23.242;2023-01-16T07:59:50;94891.56;;;3.71;100.00
8298;BME280;4187;42.778;23.242;2023-01-16T08:02:18;94894.28;;;4.04;100.00
8298;BME280;4187;42.778;23.242;2023-01-16T08:04:45;94887.75;;;3.99;100.00
8298;BME280;4187;42.778;23.242;2023-01-16T08:07:12;94896.44;;;4.10;100.00
8298;BME280;4187;42.778;23.242;2023-01-16T08:09:38;94898.94;;;4.12;100.00
8298;BME280;4187;42.778;23.242;2023-01-16T08:12:05;94902.72;;;4.19;100.00
8298;BME280;4187;42.778;23.242;2023-01-16T08:14:32;94900.28;;;4.29;100.00
8298;BME280;4187;42.778;23.242;2023-01-16T08:16:59;94907.88;;;4.32;100.00
8298;BME280;4187;42.778;23.242;2023-01-16T08:19:28;94911.81;;;4.37;100.00
8298;BME280;4187;42.778;23.242;2023-01-16T08:21:54;94888.63;;;4.33;100.00
8298;BME280;4187;42.778;23.242;2023-01-16T08:24:21;94911.84;;;4.48;100.00
8298;BME280;4187;42.778;23.242;2023-01-16T08:26:50;94900.66;;;4.46;100.00
8298;BME280;4187;42.778;23.242;2023-01-16T08:29:17;94907.44;;;4.60;100.00
8298;BME280;4187;42.778;23.242;2023-01-16T08:31:44;94892.47;;;4.73;100.00
8298;BME280;4187;42.778;23.242;2023-01-16T08:34:10;94902.44;;;4.79;100.00
8298;BME280;4187;42.778;23.242;2023-01-16T08:36:39;94882.84;;;4.84;100.00
8298;BME280;4187;42.778;23.242;2023-01-16T08:39:06;94878.78;;;5.03;100.00
8298;BME280;4187;42.778;23.242;2023-01-16T08:41:32;94886.09;;;5.20;100.00
8298;BME280;4187;42.778;23.242;2023-01-16T08:44:17;94885.97;;;5.32;100.00
8298;BME280;4187;42.778;23.242;2023-01-16T08:47:04;94840.56;;;5.22;100.00
8298;BME280;4187;42.778;23.242;2023-01-16T08:49:49;94897.69;;;5.49;100.00
8298;BME280;4187;42.778;23.242;2023-01-16T08:52:35;94877.13;;;5.44;100.00
8298;BME280;4187;42.778;23.242;2023-01-16T08:55:02;94889.09;;;5.58;100.00
8298;BME280;4187;42.778;23.242;2023-01-16T08:57:29;94884.31;;;5.63;100.00
8298;BME280;4187;42.778;23.242;2023-01-16T08:59:56;94872.94;;;5.53;100.00
8298;BME280;4187;42.778;23.242;2023-01-16T09:02:24;94872.81;;;5.55;100.00
8298;BME280;4187;42.778;23.242;2023-01-16T09:04:52;94869.38;;;5.54;100.00
8298;BME280;4187;42.778;23.242;2023-01-16T09:07:20;94867.72;;;5.53;100.00
8298;BME280;4187;42.778;23.242;2023-01-16T09:09:49;94825.84;;;5.21;100.00
8298;BME280;4187;42.778;23.242;2023-01-16T09:12:16;94874.13;;;5.49;100.00
8298;BME280;4187;42.778;23.242;2023-01-16T09:15:01;94876.34;;;5.65;100.00
8298;BME280;4187;42.778;23.242;2023-01-16T09:17:28;94859.56;;;5.67;100.00
8298;BME280;4187;42.778;23.242;2023-01-16T09:19:55;94853.19;;;5.92;100.00
8298;BME280;4187;42.778;23.242;2023-01-16T09:22:23;94851.19;;;6.05;100.00
8298;BME280;4187;42.778;23.242;2023-01-16T09:24:51;94841.84;;;6.12;100.00
8298;BME280;4187;42.778;23.242;2023-01-16T09:27:18;94854.75;;;6.25;100.00
8298;BME280;4187;42.778;23.242;2023-01-16T09:29:45;94828.88;;;6.31;100.00
8298;BME280;4187;42.778;23.242;2023-01-16T09:32:12;94832.41;;;6.51;100.00
8298;BME280;4187;42.778;23.242;2023-01-16T09:34:39;94840.47;;;6.69;100.00
8298;BME280;4187;42.778;23.242;2023-01-16T09:37:08;94832.72;;;6.57;100.00
8298;BME280;4187;42.778;23.242;2023-01-16T09:39:35;94826.38;;;6.60;100.00
8298;BME280;4187;42.778;23.242;2023-01-16T09:42:30;94815.63;;;6.63;100.00
8298;BME280;4187;42.778;23.242;2023-01-16T09:45:19;94814.56;;;6.75;100.00
8298;BME280;4187;42.778;23.242;2023-01-16T09:47:50;94815.78;;;6.71;100.00
8298;BME280;4187;42.778;23.242;2023-01-16T09:50:26;94815.00;;;6.80;100.00
8298;BME280;4187;42.778;23.242;2023-01-16T09:52:56;94822.78;;;6.91;100.00
8298;BME280;4187;42.778;23.242;2023-01-16T09:55:44;94799.84;;;7.03;100.00
8298;BME280;4187;42.778;23.242;2023-01-16T09:58:31;94804.59;;;7.18;100.00
8298;BME280;4187;42.778;23.242;2023-01-16T10:01:06;94797.97;;;7.34;100.00
8298;BME280;4187;42.778;23.242;2023-01-16T10:03:33;94779.47;;;7.16;100.00
8298;BME280;4187;42.778;23.242;2023-01-16T10:06:12;94784.44;;;7.19;100.00
8298;BME280;4187;42.778;23.242;2023-01-16T10:08:51;94781.38;;;7.04;100.00
8298;BME280;4187;42.778;23.242;2023-01-16T10:11:22;94777.50;;;7.08;100.00
8298;BME280;4187;42.778;23.242;2023-01-16T10:14:06;94779.47;;;7.16;100.00
8298;BME280;4187;42.778;23.242;2023-01-16T10:16:43;94743.53;;;7.16;100.00
8298;BME280;4187;42.778;23.242;2023-01-16T10:19:27;94748.78;;;7.36;100.00
8298;BME280;4187;42.778;23.242;2023-01-16T10:22:11;94747.41;;;7.51;100.00
8298;BME280;4187;42.778;23.242;2023-01-16T10:24:52;94749.63;;;7.65;100.00
8298;BME280;4187;42.778;23.242;2023-01-16T10:27:28;94745.47;;;7.72;100.00
8298;BME280;4187;42.778;23.242;2023-01-16T10:30:04;94738.50;;;8.00;100.00
8298;BME280;4187;42.778;23.242;2023-01-16T10:32:39;94745.06;;;8.23;100.00
8298;BME280;4187;42.778;23.242;2023-01-16T10:35:13;94734.66;;;8.40;100.00
8298;BME280;4187;42.778;23.242;2023-01-16T10:37:43;94723.31;;;8.40;100.00
8298;BME280;4187;42.778;23.242;2023-01-16T10:40:13;94718.66;;;8.52;100.00
8298;BME280;4187;42.778;23.242;2023-01-16T10:42:43;94680.84;;;8.35;100.00
8298;BME280;4187;42.778;23.242;2023-01-16T10:45:33;94707.81;;;8.37;100.00
8298;BME280;4187;42.778;23.242;2023-01-16T10:48:18;94680.53;;;8.38;100.00
8298;BME280;4187;42.778;23.242;2023-01-16T10:51:03;94686.28;;;8.78;100.00
8298;BME280;4187;42.778;23.242;2023-01-16T10:53:32;94694.09;;;8.88;100.00
8298;BME280;4187;42.778;23.242;2023-01-16T10:56:00;94671.47;;;8.95;100.00
8298;BME280;4187;42.778;23.242;2023-01-16T10:58:29;94683.50;;;8.97;100.00
8298;BME280;4187;42.778;23.242;2023-01-16T11:01:00;94672.16;;;8.97;100.00
8298;BME280;4187;42.778;23.242;2023-01-16T11:03:40;94651.41;;;8.94;100.00
8298;BME280;4187;42.778;23.242;2023-01-16T11:06:12;94652.38;;;8.93;100.00
8298;BME280;4187;42.778;23.242;2023-01-16T11:08:41;94655.38;;;8.98;100.00
8298;BME280;4187;42.778;23.242;2023-01-16T11:11:11;94658.78;;;9.08;100.00
8298;BME280;4187;42.778;23.242;2023-01-16T11:13:52;94651.09;;;9.15;100.00
8298;BME280;4187;42.778;23.242;2023-01-16T11:16:38;94621.13;;;10.52;100.00
8298;BME280;4187;42.778;23.242;2023-01-16T11:19:24;94634.75;;;10.90;100.00
8298;BME280;4187;42.778;23.242;2023-01-16T11:21:55;94614.16;;;11.41;100.00
8298;BME280;4187;42.778;23.242;2023-01-16T11:24:30;94598.31;;;11.33;98.29
8298;BME280;4187;42.778;23.242;2023-01-16T11:26:58;94581.47;;;11.10;96.93
8298;BME280;4187;42.778;23.242;2023-01-16T11:29:28;94626.34;;;10.94;96.68
8298;BME280;4187;42.778;23.242;2023-01-16T11:32:03;94618.38;;;10.62;97.50
8298;BME280;4187;42.778;23.242;2023-01-16T11:34:30;94580.19;;;10.24;97.47
8298;BME280;4187;42.778;23.242;2023-01-16T11:36:59;94611.19;;;10.04;98.10
8298;BME280;4187;42.778;23.242;2023-01-16T11:39:30;94581.88;;;9.74;100.00
8298;BME280;4187;42.778;23.242;2023-01-16T11:41:59;94610.88;;;9.74;100.00
8298;BME280;4187;42.778;23.242;2023-01-16T11:44:51;94586.09;;;9.58;100.00
8298;BME280;4187;42.778;23.242;2023-01-16T11:47:41;94594.81;;;9.33;100.00
8298;BME280;4187;42.778;23.242;2023-01-16T11:50:21;94583.44;;;9.07;100.00
8298;BME280;4187;42.778;23.242;2023-01-16T11:52:51;94573.66;;;8.99;100.00
8298;BME280;4187;42.778;23.242;2023-01-16T11:55:18;94560.69;;;8.80;100.00
8298;BME280;4187;42.778;23.242;2023-01-16T11:57:48;94562.56;;;8.53;100.00
8298;BME280;4187;42.778;23.242;2023-01-16T12:03:35;94557.25;;;8.62;100.00
8298;BME280;4187;42.778;23.242;2023-01-16T12:06:18;94545.19;;;8.60;100.00
8298;BME280;4187;42.778;23.242;2023-01-16T12:09:07;94510.00;;;8.25;100.00
8298;BME280;4187;42.778;23.242;2023-01-16T12:12:00;94547.63;;;8.26;100.00
8298;BME280;4187;42.778;23.242;2023-01-16T12:14:53;94529.91;;;8.10;100.00
8298;BME280;4187;42.778;23.242;2023-01-16T12:17:30;94524.84;;;7.99;100.00
8298;BME280;4187;42.778;23.242;2023-01-16T12:20:17;94536.13;;;7.82;100.00
8298;BME280;4187;42.778;23.242;2023-01-16T12:23:00;94520.94;;;7.76;100.00
8298;BME280;4187;42.778;23.242;2023-01-16T12:25:35;94516.59;;;7.67;100.00
8298;BME280;4187;42.778;23.242;2023-01-16T12:28:10;94507.16;;;7.47;100.00
8298;BME280;4187;42.778;23.242;2023-01-16T12:31:00;94513.97;;;7.40;100.00
8298;BME280;4187;42.778;23.242;2023-01-16T12:33:54;94483.19;;;7.32;100.00
8298;BME280;4187;42.778;23.242;2023-01-16T12:36:33;94509.94;;;7.45;100.00
8298;BME280;4187;42.778;23.242;2023-01-16T12:39:09;94504.56;;;7.37;100.00
8298;BME280;4187;42.778;23.242;2023-01-16T12:41:44;94492.13;;;7.39;100.00
8298;BME280;4187;42.778;23.242;2023-01-16T12:44:39;94463.78;;;7.15;100.00
8298;BME280;4187;42.778;23.242;2023-01-16T12:47:31;94502.81;;;7.28;100.00
8298;BME280;4187;42.778;23.242;2023-01-16T12:50:11;94500.22;;;7.18;100.00
8298;BME280;4187;42.778;23.242;2023-01-16T12:53:02;94483.38;;;7.11;100.00
8298;BME280;4187;42.778;23.242;2023-01-16T12:55:39;94471.50;;;7.17;100.00
8298;BME280;4187;42.778;23.242;2023-01-16T12:58:13;94468.53;;;7.02;100.00
8298;BME280;4187;42.778;23.242;2023-01-16T13:00:43;94472.66;;;6.95;100.00
8298;BME280;4187;42.778;23.242;2023-01-16T13:03:25;94467.31;;;6.87;100.00
8298;BME280;4187;42.778;23.242;2023-01-16T13:05:56;94446.59;;;6.84;100.00
8298;BME280;4187;42.778;23.242;2023-01-16T13:08:30;94447.94;;;6.61;100.00
8298;BME280;4187;42.778;23.242;2023-01-16T13:11:04;94445.59;;;6.58;100.00
8298;BME280;4187;42.778;23.242;2023-01-16T13:13:52;94443.53;;;6.52;100.00
8298;BME280;4187;42.778;23.242;2023-01-16T13:16:25;94435.94;;;6.49;100.00
8298;BME280;4187;42.778;23.242;2023-01-16T13:18:58;94424.53;;;6.40;100.00
8298;BME280;4187;42.778;23.242;2023-01-16T13:21:30;94434.44;;;6.37;100.00
8298;BME280;4187;42.778;23.242;2023-01-16T13:24:03;94435.28;;;6.37;100.00
8298;BME280;4187;42.778;23.242;2023-01-16T13:26:31;94448.22;;;6.39;100.00
8298;BME280;4187;42.778;23.242;2023-01-16T13:29:05;94444.66;;;6.30;100.00
8298;BME280;4187;42.778;23.242;2023-01-16T13:31:38;94436.38;;;6.25;100.00
8298;BME280;4187;42.778;23.242;2023-01-16T13:34:11;94445.50;;;6.12;100.00
8298;BME280;4187;42.778;23.242;2023-01-16T13:37:04;94446.19;;;6.14;100.00